Time;durP1;ratioP1;P1;durP2;ratioP2;P2;SDS_P1;SDS_P2;PMS_P1;PMS_P2;Temp;Humidity;BMP_temperature;BMP_pressure;BME280_temperature;BME280_humidity;BME280_pressure;Samples;Min_cycle;Max_cycle;Signal;HPM_P1;HPM_P2
2022/05/02 00:00:46;;;;;;;6.70;6.00;;;;;;;;;;5020550;28;20200;-33
2022/05/02 00:03:14;;;;;;;5.30;4.80;;;;;;;;;;5012153;28;20199;-40
2022/05/02 00:05:41;;;;;;;5.80;5.20;;;;;;;;;;5021821;28;20235;-37
2022/05/02 00:08:08;;;;;;;6.20;5.53;;;;;;;;;;5027842;28;20203;-39
2022/05/02 00:10:35;;;;;;;6.33;5.73;;;;;;;;;;5026102;28;20231;-37
2022/05/02 00:13:02;;;;;;;7.40;5.60;;;;;;;;;;5024560;28;20301;-36
2022/05/02 00:15:31;;;;;;;7.63;6.10;;;;;;;;;;5025172;28;20230;-35
2022/05/02 00:18:00;;;;;;;6.60;5.90;;;;;;;;;;5033663;28;20211;-36
2022/05/02 00:20:28;;;;;;;6.90;5.20;;;;;;;;;;5016446;28;20218;-39
2022/05/02 00:22:55;;;;;;;6.23;5.63;;;;;;;;;;5030243;28;20301;-33
2022/05/02 00:25:23;;;;;;;6.50;5.90;;;;;;;;;;5029656;28;20237;-37
2022/05/02 00:27:50;;;;;;;6.00;5.40;;;;;;;;;;5021658;28;20207;-36
2022/05/02 00:30:17;;;;;;;5.73;5.17;;;;;;;;;;5024281;28;20225;-34
2022/05/02 00:32:45;;;;;;;7.03;5.20;;;;;;;;;;5032868;28;20216;-43
2022/05/02 00:35:14;;;;;;;7.77;5.47;;;;;;;;;;5026595;28;20268;-38
2022/05/02 00:37:41;;;;;;;6.13;4.87;;;;;;;;;;5031352;28;20266;-39
2022/05/02 00:40:09;;;;;;;5.87;5.30;;;;;;;;;;5033669;28;20207;-39
2022/05/02 00:42:37;;;;;;;5.03;4.63;;;;;;;;;;5015601;28;20199;-41
2022/05/02 00:45:05;;;;;;;5.57;4.97;;;;;;;;;;5032974;28;20209;-35
2022/05/02 00:47:32;;;;;;;6.13;5.50;;;;;;;;;;5033184;28;20206;-41
2022/05/02 00:49:59;;;;;;;7.50;5.07;;;;;;;;;;5028949;28;20215;-39
2022/05/02 00:52:28;;;;;;;6.37;5.30;;;;;;;;;;5013740;28;20227;-36
2022/05/02 00:54:55;;;;;;;6.17;5.20;;;;;;;;;;5024383;28;20209;-31
2022/05/02 00:57:22;;;;;;;5.30;4.80;;;;;;;;;;5013049;28;20207;-38
2022/05/02 00:59:50;;;;;;;8.27;5.57;;;;;;;;;;5020181;28;20225;-39
2022/05/02 01:02:17;;;;;;;7.53;5.40;;;;;;;;;;5019001;28;20198;-32
2022/05/02 01:04:44;;;;;;;6.23;5.17;;;;;;;;;;5025191;28;20202;-39
2022/05/02 01:07:11;;;;;;;6.40;5.73;;;;;;;;;;5032275;28;20234;-40
2022/05/02 01:09:41;;;;;;;6.40;5.40;;;;;;;;;;5023075;28;20205;-41
2022/05/02 01:12:10;;;;;;;5.57;5.07;;;;;;;;;;5024694;28;20249;-40
2022/05/02 01:14:37;;;;;;;6.50;5.30;;;;;;;;;;5022259;28;20204;-38
2022/05/02 01:17:05;;;;;;;5.77;5.20;;;;;;;;;;5011955;28;20254;-38
2022/05/02 01:19:32;;;;;;;7.33;5.63;;;;;;;;;;5012384;28;20214;-38
2022/05/02 01:22:01;;;;;;;5.83;5.27;;;;;;;;;;5016044;28;20200;-41
2022/05/02 01:24:38;;;;;;;5.67;4.83;;;;;;;;;;5011987;28;20206;-34
2022/05/02 01:27:06;;;;;;;7.40;5.70;;;;;;;;;;5017350;28;20229;-35
2022/05/02 01:29:33;;;;;;;6.83;5.57;;;;;;;;;;5021276;28;20209;-34
2022/05/02 01:32:01;;;;;;;6.33;5.70;;;;;;;;;;5017217;28;20226;-32
2022/05/02 01:34:28;;;;;;;6.20;5.60;;;;;;;;;;5022369;28;20199;-38
2022/05/02 01:36:56;;;;;;;6.00;5.33;;;;;;;;;;5016524;28;20219;-33
2022/05/02 01:39:24;;;;;;;5.53;4.93;;;;;;;;;;5022895;28;20210;-35
2022/05/02 01:41:51;;;;;;;6.60;5.90;;;;;;;;;;5020751;28;20211;-33
2022/05/02 01:44:19;;;;;;;7.13;5.43;;;;;;;;;;5011187;28;20214;-42
2022/05/02 01:46:46;;;;;;;6.10;5.33;;;;;;;;;;5030155;28;20223;-37
2022/05/02 01:49:13;;;;;;;7.97;5.47;;;;;;;;;;5031766;28;20207;-35
2022/05/02 01:51:40;;;;;;;6.57;5.10;;;;;;;;;;5021136;28;20227;-32
2022/05/02 01:54:08;;;;;;;7.23;5.80;;;;;;;;;;5019161;28;20254;-32
2022/05/02 01:56:36;;;;;;;6.67;5.97;;;;;;;;;;5011074;28;20274;-37
2022/05/02 01:59:04;;;;;;;7.77;5.93;;;;;;;;;;5015837;28;20217;-34
2022/05/02 02:01:31;;;;;;;6.23;5.63;;;;;;;;;;5031008;28;20203;-32
2022/05/02 02:03:58;;;;;;;6.90;6.20;;;;;;;;;;5027071;28;20278;-36
2022/05/02 02:06:24;;;;;;;7.60;6.47;;;;;;;;;;5018783;28;20293;-37
2022/05/02 02:08:51;;;;;;;7.83;6.60;;;;;;;;;;5020222;28;20293;-34
2022/05/02 02:11:19;;;;;;;7.23;6.53;;;;;;;;;;5009301;28;20230;-35
2022/05/02 02:13:47;;;;;;;7.00;5.80;;;;;;;;;;5020572;28;20207;-36
2022/05/02 02:16:14;;;;;;;8.27;6.37;;;;;;;;;;5013871;28;20229;-36
2022/05/02 02:18:42;;;;;;;9.53;5.77;;;;;;;;;;5017303;28;20599;-33
2022/05/02 02:21:10;;;;;;;7.13;5.80;;;;;;;;;;5016545;28;20216;-36
2022/05/02 02:23:38;;;;;;;7.17;6.37;;;;;;;;;;5021511;28;20191;-35
2022/05/02 02:26:05;;;;;;;6.57;5.97;;;;;;;;;;5010375;28;20247;-34
2022/05/02 02:28:33;;;;;;;8.33;6.37;;;;;;;;;;5021175;28;20212;-40
2022/05/02 02:31:01;;;;;;;8.13;6.07;;;;;;;;;;5011030;28;20207;-34
2022/05/02 02:33:29;;;;;;;8.80;6.27;;;;;;;;;;5030408;28;20202;-33
2022/05/02 02:35:56;;;;;;;6.40;5.80;;;;;;;;;;5015893;28;20291;-34
2022/05/02 02:38:23;;;;;;;8.53;6.40;;;;;;;;;;5017404;28;20210;-40
2022/05/02 02:40:50;;;;;;;6.83;6.13;;;;;;;;;;5010803;28;20218;-36
2022/05/02 02:43:17;;;;;;;8.00;6.50;;;;;;;;;;5020649;28;20214;-42
2022/05/02 02:45:44;;;;;;;10.20;6.20;;;;;;;;;;5016976;28;20225;-34
2022/05/02 02:48:13;;;;;;;8.03;5.87;;;;;;;;;;5010019;28;20207;-31
2022/05/02 02:50:40;;;;;;;7.20;5.80;;;;;;;;;;5012074;28;20199;-34
2022/05/02 02:53:08;;;;;;;6.63;5.83;;;;;;;;;;5015982;28;20285;-35
2022/05/02 02:55:35;;;;;;;8.43;6.70;;;;;;;;;;5027303;28;20256;-36
2022/05/02 02:58:02;;;;;;;8.53;6.10;;;;;;;;;;5016080;28;20211;-39
2022/05/02 03:00:29;;;;;;;9.57;6.77;;;;;;;;;;5019455;28;20206;-38
2022/05/02 03:02:57;;;;;;;7.67;5.90;;;;;;;;;;5030978;28;20220;-37
2022/05/02 03:08:10;;;;;;;6.93;6.23;;;;;;;;;;5016516;28;20311;-38
2022/05/02 03:10:37;;;;;;;9.70;6.00;;;;;;;;;;5009695;28;20207;-33
2022/05/02 03:13:05;;;;;;;7.17;6.13;;;;;;;;;;5020915;28;20228;-35
2022/05/02 03:15:33;;;;;;;8.77;6.23;;;;;;;;;;5010645;28;20223;-32
2022/05/02 03:18:01;;;;;;;8.60;6.70;;;;;;;;;;5011511;28;20229;-38
2022/05/02 03:20:29;;;;;;;6.87;5.97;;;;;;;;;;5009577;28;20218;-35
2022/05/02 03:22:56;;;;;;;7.10;6.40;;;;;;;;;;5018942;28;20207;-41
2022/05/02 03:25:23;;;;;;;6.70;6.00;;;;;;;;;;5023655;28;20226;-36
2022/05/02 03:27:50;;;;;;;6.57;5.97;;;;;;;;;;5022477;28;20211;-37
2022/05/02 03:30:17;;;;;;;6.53;5.87;;;;;;;;;;5011757;28;20214;-36
2022/05/02 03:32:45;;;;;;;7.17;6.33;;;;;;;;;;5012172;28;20234;-36
2022/05/02 03:35:12;;;;;;;6.30;5.73;;;;;;;;;;5013049;28;20214;-34
2022/05/02 03:37:40;;;;;;;8.87;7.07;;;;;;;;;;5020208;28;20226;-35
2022/05/02 03:40:08;;;;;;;8.20;6.97;;;;;;;;;;5019390;28;20203;-34
2022/05/02 03:42:36;;;;;;;8.27;6.63;;;;;;;;;;5026015;28;20211;-36
2022/05/02 03:45:03;;;;;;;7.27;6.50;;;;;;;;;;5024582;28;20200;-38
2022/05/02 03:47:30;;;;;;;7.40;6.60;;;;;;;;;;5016812;28;20202;-38
2022/05/02 03:49:57;;;;;;;7.77;6.53;;;;;;;;;;5018766;28;20202;-41
2022/05/02 03:52:24;;;;;;;8.77;7.17;;;;;;;;;;5017370;28;20234;-33
2022/05/02 03:54:52;;;;;;;8.03;7.23;;;;;;;;;;5016350;28;20209;-38
2022/05/02 03:57:19;;;;;;;7.53;6.83;;;;;;;;;;5021556;28;20200;-34
2022/05/02 03:59:47;;;;;;;7.77;6.97;;;;;;;;;;5015180;28;20214;-38
2022/05/02 04:02:14;;;;;;;7.87;7.07;;;;;;;;;;5015400;28;20207;-38
2022/05/02 04:04:42;;;;;;;8.33;7.13;;;;;;;;;;5020902;28;20264;-33
2022/05/02 04:07:09;;;;;;;8.40;7.43;;;;;;;;;;5015880;28;20257;-36
2022/05/02 04:09:36;;;;;;;7.40;6.50;;;;;;;;;;5032227;28;20202;-38
2022/05/02 04:12:05;;;;;;;7.17;6.47;;;;;;;;;;5031894;28;20229;-31
2022/05/02 04:14:32;;;;;;;7.77;6.90;;;;;;;;;;5019035;28;20218;-35
2022/05/02 04:16:59;;;;;;;8.47;7.10;;;;;;;;;;5016249;28;20230;-41
2022/05/02 04:19:26;;;;;;;9.73;7.30;;;;;;;;;;5014735;28;20208;-36
2022/05/02 04:21:53;;;;;;;9.57;7.27;;;;;;;;;;5031517;28;20283;-36
2022/05/02 04:24:20;;;;;;;8.10;7.20;;;;;;;;;;5023436;28;20306;-34
2022/05/02 04:26:47;;;;;;;6.90;6.13;;;;;;;;;;5023083;28;20234;-32
2022/05/02 04:29:16;;;;;;;8.23;7.30;;;;;;;;;;5025126;28;20206;-35
2022/05/02 04:31:43;;;;;;;8.27;7.43;;;;;;;;;;5035682;28;20217;-39
2022/05/02 04:34:10;;;;;;;9.60;8.60;;;;;;;;;;5028755;28;20203;-39
2022/05/02 04:36:37;;;;;;;11.23;8.27;;;;;;;;;;5016217;28;20319;-37
2022/05/02 04:39:04;;;;;;;10.70;7.13;;;;;;;;;;5020615;28;20219;-37
2022/05/02 04:41:32;;;;;;;10.47;7.70;;;;;;;;;;5018320;28;20207;-33
2022/05/02 04:43:59;;;;;;;8.63;7.00;;;;;;;;;;5016603;28;20208;-38
2022/05/02 04:46:40;;;;;;;7.33;6.63;;;;;;;;;;5019469;28;20218;-34
2022/05/02 04:49:07;;;;;;;7.40;6.27;;;;;;;;;;5028550;28;20281;-38
2022/05/02 04:51:36;;;;;;;10.53;7.33;;;;;;;;;;5030915;28;20198;-33
2022/05/02 04:54:09;;;;;;;10.57;7.70;;;;;;;;;;5029526;28;20225;-33
2022/05/02 04:56:38;;;;;;;7.37;6.67;;;;;;;;;;5016190;28;20237;-33
2022/05/02 04:59:05;;;;;;;8.57;7.07;;;;;;;;;;5028127;28;20273;-35
2022/05/02 05:01:32;;;;;;;8.03;6.73;;;;;;;;;;5030318;28;20210;-40
2022/05/02 05:04:01;;;;;;;8.83;7.43;;;;;;;;;;5033998;28;20199;-35
2022/05/02 05:06:28;;;;;;;8.83;7.50;;;;;;;;;;5023394;28;20233;-35
2022/05/02 05:08:56;;;;;;;9.00;7.17;;;;;;;;;;5020243;28;20207;-33
2022/05/02 05:11:29;;;;;;;9.00;6.73;;;;;;;;;;5026671;28;20213;-37
2022/05/02 05:16:52;;;;;;;9.63;7.50;;;;;;;;;;5021003;28;20278;-33
2022/05/02 05:19:32;;;;;;;9.90;7.87;;;;;;;;;;5029400;28;20261;-35
2022/05/02 05:22:05;;;;;;;8.23;7.40;;;;;;;;;;5015793;28;20187;-39
2022/05/02 05:24:41;;;;;;;8.93;7.57;;;;;;;;;;5030470;28;20206;-35
2022/05/02 05:27:15;;;;;;;8.37;7.50;;;;;;;;;;5014605;28;20234;-33
2022/05/02 05:29:48;;;;;;;8.63;7.73;;;;;;;;;;5025073;28;20207;-34
2022/05/02 05:32:31;;;;;;;8.30;7.37;;;;;;;;;;5034352;28;20210;-35
2022/05/02 05:35:05;;;;;;;9.00;8.03;;;;;;;;;;5030401;28;20212;-39
2022/05/02 05:37:47;;;;;;;8.50;7.60;;;;;;;;;;5015226;28;20264;-33
2022/05/02 05:40:21;;;;;;;9.23;8.20;;;;;;;;;;5021174;28;20195;-33
2022/05/02 05:42:55;;;;;;;11.07;8.37;;;;;;;;;;5022110;28;20229;-33
2022/05/02 05:45:26;;;;;;;9.50;8.50;;;;;;;;;;5024983;28;20257;-35
2022/05/02 05:47:58;;;;;;;11.73;8.63;;;;;;;;;;5033878;28;20637;-32
2022/05/02 05:50:30;;;;;;;9.63;8.37;;;;;;;;;;5021158;28;20202;-33
2022/05/02 05:53:03;;;;;;;12.00;8.70;;;;;;;;;;5025712;28;20210;-39
2022/05/02 05:55:36;;;;;;;10.20;8.43;;;;;;;;;;5029452;28;20214;-35
2022/05/02 05:58:07;;;;;;;15.00;9.00;;;;;;;;;;5024521;28;20211;-36
2022/05/02 06:00:38;;;;;;;12.97;8.53;;;;;;;;;;5032822;28;20203;-33
2022/05/02 06:03:09;;;;;;;9.77;8.77;;;;;;;;;;5032436;28;20217;-36
2022/05/02 06:05:40;;;;;;;11.57;8.83;;;;;;;;;;5028469;28;20633;-35
2022/05/02 06:08:09;;;;;;;11.93;9.13;;;;;;;;;;5021175;28;20204;-34
2022/05/02 06:10:38;;;;;;;10.73;8.23;;;;;;;;;;5020118;28;20213;-39
2022/05/02 06:13:06;;;;;;;10.83;8.73;;;;;;;;;;5012512;28;20219;-38
2022/05/02 06:18:31;;;;;;;9.93;8.67;;;;;;;;;;5013339;28;20190;-35
2022/05/02 06:21:02;;;;;;;10.50;9.40;;;;;;;;;;5024401;28;20202;-42
2022/05/02 06:23:31;;;;;;;12.73;9.57;;;;;;;;;;5024557;28;20206;-35
2022/05/02 06:25:58;;;;;;;11.40;9.47;;;;;;;;;;5012332;28;20227;-40
2022/05/02 06:28:28;;;;;;;11.73;9.40;;;;;;;;;;5019365;28;20205;-31
2022/05/02 06:30:57;;;;;;;10.43;9.10;;;;;;;;;;5027135;28;20209;-37
2022/05/02 06:33:25;;;;;;;10.30;9.13;;;;;;;;;;5015581;28;20231;-34
2022/05/02 06:36:16;;;;;;;9.47;8.47;;;;;;;;;;5022274;28;20238;-32
2022/05/02 06:38:52;;;;;;;11.50;9.03;;;;;;;;;;5032752;28;20203;-33
2022/05/02 06:41:26;;;;;;;12.97;9.30;;;;;;;;;;5022142;28;20205;-36
2022/05/02 06:43:55;;;;;;;12.47;9.07;;;;;;;;;;5021375;28;20205;-37
2022/05/02 06:46:27;;;;;;;11.73;9.30;;;;;;;;;;5028451;28;20228;-37
2022/05/02 06:48:56;;;;;;;13.77;8.90;;;;;;;;;;5033527;28;20216;-35
2022/05/02 06:51:38;;;;;;;11.63;9.10;;;;;;;;;;5021376;28;20226;-34
2022/05/02 06:54:12;;;;;;;10.73;8.43;;;;;;;;;;5027382;28;20245;-34
2022/05/02 06:56:43;;;;;;;11.37;9.37;;;;;;;;;;5021154;28;20309;-30
2022/05/02 06:59:16;;;;;;;12.20;8.90;;;;;;;;;;5032523;28;20210;-38
2022/05/02 07:01:47;;;;;;;10.77;9.37;;;;;;;;;;5014646;28;20207;-37
2022/05/02 07:04:19;;;;;;;13.17;9.77;;;;;;;;;;5018318;28;20213;-34
2022/05/02 07:06:57;;;;;;;10.03;8.53;;;;;;;;;;5022122;28;20234;-35
2022/05/02 07:09:28;;;;;;;10.13;8.83;;;;;;;;;;5013347;28;20211;-35
2022/05/02 07:12:02;;;;;;;9.97;8.97;;;;;;;;;;5013788;28;20202;-37
2022/05/02 07:14:34;;;;;;;11.53;9.67;;;;;;;;;;5020385;28;20217;-35
2022/05/02 07:17:05;;;;;;;10.17;9.10;;;;;;;;;;5019389;28;20218;-36
2022/05/02 07:19:48;;;;;;;9.47;8.47;;;;;;;;;;5016258;28;20188;-32
2022/05/02 07:22:21;;;;;;;9.97;8.97;;;;;;;;;;5024626;28;20222;-40
2022/05/02 07:24:55;;;;;;;10.67;9.17;;;;;;;;;;5026334;28;20196;-37
2022/05/02 07:27:34;;;;;;;11.83;9.70;;;;;;;;;;5020215;28;20205;-33
2022/05/02 07:30:01;;;;;;;11.77;9.33;;;;;;;;;;5016725;28;20261;-32
2022/05/02 07:32:28;;;;;;;10.87;9.07;;;;;;;;;;5036302;28;20207;-40
2022/05/02 07:34:56;;;;;;;11.30;9.33;;;;;;;;;;5030596;28;20208;-37
2022/05/02 07:37:25;;;;;;;10.80;9.70;;;;;;;;;;5030819;28;20203;-37
2022/05/02 07:39:52;;;;;;;10.37;8.93;;;;;;;;;;5027828;28;20297;-33
2022/05/02 07:42:20;;;;;;;11.00;9.90;;;;;;;;;;5019068;28;20204;-34
2022/05/02 07:44:50;;;;;;;10.00;9.00;;;;;;;;;;5024183;28;20227;-36
2022/05/02 07:47:18;;;;;;;12.17;9.60;;;;;;;;;;5016596;28;20278;-37
2022/05/02 07:49:47;;;;;;;9.60;8.60;;;;;;;;;;5016272;28;20248;-35
2022/05/02 07:52:17;;;;;;;9.90;8.80;;;;;;;;;;5028584;28;20304;-34
2022/05/02 07:54:48;;;;;;;10.97;9.40;;;;;;;;;;5027178;28;20235;-33
2022/05/02 07:57:16;;;;;;;10.13;8.60;;;;;;;;;;5030578;28;20328;-34
2022/05/02 07:59:43;;;;;;;9.97;8.53;;;;;;;;;;5019169;28;20227;-36
2022/05/02 08:02:11;;;;;;;10.83;8.80;;;;;;;;;;5035615;28;20204;-35
2022/05/02 08:04:40;;;;;;;10.13;8.23;;;;;;;;;;5017147;28;20291;-35
2022/05/02 08:07:12;;;;;;;11.07;8.80;;;;;;;;;;5013475;28;20252;-38
2022/05/02 08:10:00;;;;;;;9.70;8.03;;;;;;;;;;5031578;28;20213;-38
2022/05/02 08:12:30;;;;;;;10.47;8.00;;;;;;;;;;5025374;28;20201;-33
2022/05/02 08:15:02;;;;;;;11.80;9.57;;;;;;;;;;5014806;28;20224;-38
2022/05/02 08:17:42;;;;;;;12.03;9.23;;;;;;;;;;5015551;28;20275;-35
2022/05/02 08:20:14;;;;;;;9.80;8.73;;;;;;;;;;5027542;28;20219;-38
2022/05/02 08:28:23;;;;;;;11.53;9.30;;;;;;;;;;5022513;28;20200;-41
2022/05/02 08:30:58;;;;;;;10.07;9.07;;;;;;;;;;5027758;28;20254;-33
2022/05/02 08:33:26;;;;;;;9.87;8.90;;;;;;;;;;5035776;28;20212;-36
2022/05/02 08:35:58;;;;;;;9.97;8.90;;;;;;;;;;5025981;28;20225;-35
2022/05/02 08:38:40;;;;;;;9.60;7.60;;;;;;;;;;5034492;28;20223;-39
2022/05/02 08:41:28;;;;;;;8.90;7.47;;;;;;;;;;5023521;28;20231;-36
2022/05/02 08:44:16;;;;;;;8.53;7.57;;;;;;;;;;5028316;28;20235;-43
2022/05/02 08:47:10;;;;;;;10.43;8.70;;;;;;;;;;5034967;28;20229;-42
2022/05/02 08:49:58;;;;;;;9.37;8.03;;;;;;;;;;5021853;28;20259;-37
2022/05/02 08:52:43;;;;;;;11.87;7.73;;;;;;;;;;5026172;28;20207;-40
2022/05/02 08:55:21;;;;;;;11.20;7.83;;;;;;;;;;5024501;28;20214;-39
2022/05/02 08:58:11;;;;;;;8.60;7.77;;;;;;;;;;5024515;28;20206;-35
2022/05/02 09:00:46;;;;;;;10.23;8.63;;;;;;;;;;4970853;28;20241;-36
2022/05/02 09:03:31;;;;;;;8.97;8.07;;;;;;;;;;5035048;28;20191;-37
2022/05/02 09:06:10;;;;;;;10.53;7.73;;;;;;;;;;5033458;28;20224;-36
2022/05/02 09:08:56;;;;;;;12.13;8.47;;;;;;;;;;5017417;28;20200;-37
2022/05/02 09:11:33;;;;;;;9.80;7.63;;;;;;;;;;5019543;28;20207;-39
2022/05/02 09:14:12;;;;;;;7.80;7.07;;;;;;;;;;5027867;28;20233;-40
2022/05/02 09:16:53;;;;;;;8.03;7.10;;;;;;;;;;5031116;28;20225;-37
2022/05/02 09:19:32;;;;;;;8.00;7.13;;;;;;;;;;5027919;28;20664;-39
2022/05/02 09:22:12;;;;;;;10.37;8.13;;;;;;;;;;5023777;28;20564;-34
2022/05/02 09:24:57;;;;;;;9.13;7.17;;;;;;;;;;5032574;28;20201;-36
2022/05/02 09:27:41;;;;;;;9.83;8.37;;;;;;;;;;5002968;28;20205;-38
2022/05/02 09:30:24;;;;;;;9.47;7.97;;;;;;;;;;5018803;28;20202;-40
2022/05/02 09:33:05;;;;;;;9.07;7.93;;;;;;;;;;5031099;28;20208;-37
2022/05/02 09:35:35;;;;;;;7.20;6.60;;;;;;;;;;5015370;28;20306;-37
2022/05/02 09:38:13;;;;;;;8.27;7.03;;;;;;;;;;5024328;28;20205;-41
2022/05/02 09:40:42;;;;;;;7.77;6.93;;;;;;;;;;5027684;28;20291;-34
2022/05/02 09:49:33;;;;;;;8.13;7.10;;;;;;;;;;5012737;28;20266;-42
2022/05/02 09:52:06;;;;;;;8.33;7.33;;;;;;;;;;5017244;28;20354;-33
2022/05/02 09:57:33;;;;;;;7.97;6.40;;;;;;;;;;5019715;28;20198;-40
2022/05/02 10:02:49;;;;;;;8.57;6.93;;;;;;;;;;5033224;28;20206;-37
2022/05/02 10:05:22;;;;;;;8.00;7.20;;;;;;;;;;5031505;28;20234;-37
2022/05/02 10:07:54;;;;;;;8.20;6.93;;;;;;;;;;5017069;28;20260;-40
2022/05/02 10:10:25;;;;;;;8.87;7.00;;;;;;;;;;5020308;28;20195;-35
2022/05/02 10:12:55;;;;;;;8.63;6.80;;;;;;;;;;5021093;28;20203;-41
2022/05/02 10:15:40;;;;;;;8.10;6.93;;;;;;;;;;5021112;28;20229;-38
2022/05/02 10:18:23;;;;;;;7.27;6.57;;;;;;;;;;5032197;28;20511;-39
2022/05/02 10:20:59;;;;;;;7.10;6.40;;;;;;;;;;5023180;28;20206;-34
2022/05/02 10:23:35;;;;;;;7.17;6.50;;;;;;;;;;5025728;28;20206;-37
2022/05/02 10:26:02;;;;;;;6.13;5.53;;;;;;;;;;5013107;28;20226;-38
2022/05/02 10:28:37;;;;;;;7.13;5.50;;;;;;;;;;5017016;28;20203;-36
2022/05/02 10:31:06;;;;;;;5.37;4.70;;;;;;;;;;5026166;28;20202;-37
2022/05/02 10:33:36;;;;;;;5.33;4.83;;;;;;;;;;5033687;28;20206;-33
2022/05/02 10:36:05;;;;;;;4.87;4.40;;;;;;;;;;5020161;28;20302;-37
2022/05/02 10:38:36;;;;;;;5.00;4.60;;;;;;;;;;5021153;28;20293;-40
2022/05/02 10:41:08;;;;;;;5.17;4.67;;;;;;;;;;5018971;28;20191;-37
2022/05/02 10:43:37;;;;;;;6.07;4.57;;;;;;;;;;5018231;28;20202;-38
2022/05/02 10:46:04;;;;;;;6.00;5.00;;;;;;;;;;5024425;28;20214;-40
2022/05/02 10:48:36;;;;;;;4.67;4.27;;;;;;;;;;5032342;28;20683;-41
2022/05/02 10:51:06;;;;;;;4.40;4.00;;;;;;;;;;5026160;28;20199;-36
2022/05/02 10:53:51;;;;;;;4.50;4.10;;;;;;;;;;5022809;28;20200;-37
2022/05/02 10:56:21;;;;;;;4.33;3.73;;;;;;;;;;5001677;28;20266;-39
2022/05/02 10:58:48;;;;;;;4.00;3.63;;;;;;;;;;5030003;28;20215;-35
2022/05/02 11:01:24;;;;;;;9.33;4.03;;;;;;;;;;5027162;28;20241;-37
2022/05/02 11:03:59;;;;;;;4.33;3.90;;;;;;;;;;5032878;28;20202;-37
2022/05/02 11:06:33;;;;;;;4.70;4.30;;;;;;;;;;5021878;28;20222;-38
2022/05/02 11:09:01;;;;;;;4.20;3.80;;;;;;;;;;5019545;28;20210;-35
2022/05/02 11:11:35;;;;;;;4.57;3.80;;;;;;;;;;5023279;28;20203;-33
2022/05/02 11:14:08;;;;;;;4.70;3.80;;;;;;;;;;5026320;28;20313;-36
2022/05/02 11:16:40;;;;;;;4.40;4.00;;;;;;;;;;5016067;28;20245;-38
2022/05/02 11:22:04;;;;;;;4.33;3.93;;;;;;;;;;5024405;28;20348;-37
2022/05/02 11:24:38;;;;;;;4.07;3.33;;;;;;;;;;5020673;28;20226;-35
2022/05/02 11:27:22;;;;;;;4.40;3.50;;;;;;;;;;5025571;28;20276;-32
2022/05/02 11:29:57;;;;;;;5.80;4.07;;;;;;;;;;5031582;28;20202;-38
2022/05/02 11:32:28;;;;;;;3.70;3.40;;;;;;;;;;5033201;28;20190;-34
2022/05/02 11:35:04;;;;;;;3.80;3.47;;;;;;;;;;5019023;28;20309;-32
2022/05/02 11:37:35;;;;;;;4.10;3.70;;;;;;;;;;5020097;28;20225;-41
2022/05/02 11:40:07;;;;;;;4.57;3.60;;;;;;;;;;5032550;28;20191;-33
2022/05/02 11:42:37;;;;;;;3.70;3.40;;;;;;;;;;5021773;28;20546;-37
2022/05/02 11:45:09;;;;;;;3.60;3.30;;;;;;;;;;5016770;28;20497;-34
2022/05/02 11:47:43;;;;;;;3.40;3.10;;;;;;;;;;5032815;28;20219;-39
2022/05/02 11:50:10;;;;;;;3.83;3.50;;;;;;;;;;5023369;28;20211;-37
2022/05/02 11:52:39;;;;;;;3.80;3.40;;;;;;;;;;5020779;28;20207;-40
2022/05/02 11:55:07;;;;;;;3.17;2.90;;;;;;;;;;5032238;28;20317;-34
2022/05/02 11:57:41;;;;;;;3.40;3.10;;;;;;;;;;5021943;28;20202;-34
2022/05/02 12:00:11;;;;;;;4.33;3.93;;;;;;;;;;5025029;28;20210;-35
2022/05/02 12:02:54;;;;;;;5.17;3.50;;;;;;;;;;5036308;28;20274;-36
2022/05/02 12:05:24;;;;;;;4.43;3.07;;;;;;;;;;5032240;28;20223;-32
2022/05/02 12:07:53;;;;;;;2.90;2.70;;;;;;;;;;5026976;28;21403;-36
2022/05/02 12:10:20;;;;;;;2.87;2.67;;;;;;;;;;5022030;28;20202;-38
2022/05/02 12:12:53;;;;;;;3.57;3.03;;;;;;;;;;5016325;28;20215;-38
2022/05/02 12:15:20;;;;;;;3.17;2.97;;;;;;;;;;5022166;28;20223;-35
2022/05/02 12:17:54;;;;;;;3.57;3.27;;;;;;;;;;5016050;28;20211;-39
2022/05/02 12:20:28;;;;;;;4.60;3.60;;;;;;;;;;5016191;28;20213;-38
2022/05/02 12:22:56;;;;;;;3.33;3.13;;;;;;;;;;5019792;28;20207;-40
2022/05/02 12:25:24;;;;;;;4.50;3.70;;;;;;;;;;5022099;28;20219;-32
2022/05/02 12:27:53;;;;;;;4.80;3.20;;;;;;;;;;5026573;28;20229;-42
2022/05/02 12:30:21;;;;;;;3.23;2.93;;;;;;;;;;5027326;28;20199;-36
2022/05/02 12:32:48;;;;;;;3.73;2.80;;;;;;;;;;5036796;28;20211;-35
2022/05/02 12:35:15;;;;;;;3.10;2.90;;;;;;;;;;5035361;28;20325;-36
2022/05/02 12:37:44;;;;;;;2.80;2.60;;;;;;;;;;5035545;28;20211;-36
2022/05/02 12:40:13;;;;;;;3.33;2.60;;;;;;;;;;5035342;28;20207;-40
2022/05/02 12:43:04;;;;;;;3.30;3.00;;;;;;;;;;5034076;28;20211;-35
2022/05/02 12:45:44;;;;;;;3.60;3.20;;;;;;;;;;5021461;28;20220;-33
2022/05/02 12:48:17;;;;;;;3.47;2.97;;;;;;;;;;5020746;28;20194;-36
2022/05/02 12:50:46;;;;;;;2.87;2.60;;;;;;;;;;5034785;28;20199;-35
2022/05/02 12:54:09;;;;;;;3.00;2.70;;;;;;;;;;5016428;28;20208;-36
2022/05/02 12:56:06;;;;;;;2.73;2.53;;;;;;;;;;5025791;28;20237;-37
2022/05/02 13:01:21;;;;;;;3.57;3.27;;;;;;;;;;5029493;28;20265;-35
2022/05/02 13:03:55;;;;;;;3.20;2.90;;;;;;;;;;5032061;28;20211;-38
2022/05/02 13:06:22;;;;;;;3.43;3.13;;;;;;;;;;5021959;28;20237;-36
2022/05/02 13:08:50;;;;;;;3.70;3.40;;;;;;;;;;5016417;28;20207;-39
2022/05/02 13:11:21;;;;;;;3.77;3.13;;;;;;;;;;5029892;28;20203;-36
2022/05/02 13:13:50;;;;;;;4.43;2.90;;;;;;;;;;5025727;28;20218;-35
2022/05/02 13:16:18;;;;;;;3.87;3.37;;;;;;;;;;5023120;28;20231;-34
2022/05/02 13:18:48;;;;;;;2.93;2.73;;;;;;;;;;5032977;28;20274;-37
2022/05/02 13:21:15;;;;;;;4.37;2.80;;;;;;;;;;5019123;28;20199;-36
2022/05/02 13:23:44;;;;;;;3.27;2.97;;;;;;;;;;5015348;28;20275;-40
2022/05/02 13:26:29;;;;;;;4.03;3.20;;;;;;;;;;5024638;28;20230;-39
2022/05/02 13:29:00;;;;;;;4.87;3.33;;;;;;;;;;5019184;28;20209;-38
2022/05/02 13:31:32;;;;;;;3.47;2.90;;;;;;;;;;5034219;28;20222;-38
2022/05/02 13:34:01;;;;;;;3.23;3.03;;;;;;;;;;5026052;28;20207;-37
2022/05/02 13:36:31;;;;;;;3.57;3.27;;;;;;;;;;5015225;28;20238;-41
2022/05/02 13:39:04;;;;;;;2.90;2.70;;;;;;;;;;5013281;28;20199;-40
2022/05/02 13:41:34;;;;;;;3.57;3.20;;;;;;;;;;5019570;28;20218;-38
2022/05/02 13:44:06;;;;;;;2.97;2.77;;;;;;;;;;5020671;28;20203;-39
2022/05/02 13:46:42;;;;;;;3.37;3.07;;;;;;;;;;5031159;28;20227;-41
2022/05/02 13:49:16;;;;;;;3.43;3.17;;;;;;;;;;5034283;28;20188;-38
2022/05/02 13:51:51;;;;;;;3.67;3.30;;;;;;;;;;5020304;28;20208;-36
2022/05/02 13:54:23;;;;;;;3.60;3.30;;;;;;;;;;5020051;28;20194;-43
2022/05/02 13:56:56;;;;;;;3.10;2.80;;;;;;;;;;5016013;28;20252;-36
2022/05/02 13:59:29;;;;;;;3.40;3.10;;;;;;;;;;5030068;28;20225;-34
2022/05/02 14:02:00;;;;;;;3.37;3.07;;;;;;;;;;5033649;28;20183;-36
2022/05/02 14:04:39;;;;;;;3.57;3.27;;;;;;;;;;5031459;28;20288;-38
2022/05/02 14:07:12;;;;;;;3.57;3.27;;;;;;;;;;5031312;28;20257;-38
2022/05/02 14:09:41;;;;;;;3.70;3.40;;;;;;;;;;5024443;28;20226;-37
2022/05/02 14:12:28;;;;;;;3.10;2.90;;;;;;;;;;5017305;28;20204;-35
2022/05/02 14:14:56;;;;;;;3.07;2.87;;;;;;;;;;5024622;28;20298;-36
2022/05/02 14:17:30;;;;;;;3.67;3.37;;;;;;;;;;5033721;28;20212;-34
2022/05/02 14:20:13;;;;;;;3.43;3.13;;;;;;;;;;5020878;28;20238;-34
2022/05/02 14:22:41;;;;;;;4.80;3.43;;;;;;;;;;5032246;28;20203;-41
2022/05/02 14:25:10;;;;;;;3.80;3.50;;;;;;;;;;5033346;28;20210;-35
2022/05/02 14:27:38;;;;;;;4.77;3.67;;;;;;;;;;5028884;28;20266;-41
2022/05/02 14:30:07;;;;;;;6.17;3.50;;;;;;;;;;5029201;28;20205;-35
2022/05/02 14:32:41;;;;;;;3.93;3.50;;;;;;;;;;5033404;28;20228;-37
2022/05/02 14:35:09;;;;;;;3.57;3.27;;;;;;;;;;5023054;28;20314;-39
2022/05/02 14:37:38;;;;;;;3.60;3.30;;;;;;;;;;5031870;28;20203;-36
2022/05/02 14:40:05;;;;;;;4.33;3.20;;;;;;;;;;5031821;28;20215;-38
2022/05/02 14:42:33;;;;;;;3.70;3.37;;;;;;;;;;5020251;28;20207;-34
2022/05/02 14:45:00;;;;;;;4.57;3.53;;;;;;;;;;5023601;28;20208;-37
2022/05/02 14:47:28;;;;;;;4.00;3.13;;;;;;;;;;5019087;28;20203;-39
2022/05/02 14:49:57;;;;;;;3.30;3.00;;;;;;;;;;5022425;28;20203;-33
2022/05/02 14:52:26;;;;;;;3.90;3.60;;;;;;;;;;5033031;28;20215;-36
2022/05/02 14:54:56;;;;;;;3.80;3.40;;;;;;;;;;5018607;28;20295;-32
2022/05/02 14:57:24;;;;;;;3.50;3.20;;;;;;;;;;5025772;28;20289;-36
2022/05/02 14:59:56;;;;;;;3.47;3.17;;;;;;;;;;5029141;28;20310;-42
2022/05/02 15:02:25;;;;;;;3.70;3.10;;;;;;;;;;5032463;28;20189;-36
2022/05/02 15:04:54;;;;;;;3.50;3.20;;;;;;;;;;5023893;28;20207;-36
2022/05/02 15:07:22;;;;;;;3.33;3.03;;;;;;;;;;5021687;28;20217;-35
2022/05/02 15:12:50;;;;;;;3.73;3.40;;;;;;;;;;5008792;28;20206;-37
2022/05/02 15:15:28;;;;;;;3.63;3.10;;;;;;;;;;5011561;28;20310;-38
2022/05/02 15:18:09;;;;;;;3.30;3.00;;;;;;;;;;5012887;28;20203;-39
2022/05/02 15:20:39;;;;;;;4.07;3.10;;;;;;;;;;5014212;28;20200;-40
2022/05/02 15:23:11;;;;;;;3.53;3.23;;;;;;;;;;5020035;28;20198;-34
2022/05/02 15:25:50;;;;;;;4.10;3.80;;;;;;;;;;5020205;28;20306;-34
2022/05/02 15:36:47;;;;;;;3.60;3.30;;;;;;;;;;4988594;28;20296;-34
2022/05/02 15:39:26;;;;;;;4.73;3.73;;;;;;;;;;5022211;28;20260;-31
2022/05/02 15:41:59;;;;;;;3.73;3.47;;;;;;;;;;5020848;28;20662;-36
2022/05/02 15:44:29;;;;;;;4.60;3.70;;;;;;;;;;5032349;28;20209;-37
2022/05/02 15:47:00;;;;;;;3.37;3.10;;;;;;;;;;5033630;28;20237;-31